createdAt,value
2022-09-12T00:09:11.547Z,90.40
2022-09-12T00:14:39.353Z,90.40
2022-09-12T00:20:09.471Z,90.60
2022-09-12T00:25:46.125Z,90.40
2022-09-12T00:31:18.456Z,90.40
2022-09-12T00:42:14.296Z,90.50
2022-09-12T00:47:43.570Z,90.50
2022-09-12T00:53:12.450Z,90.50
2022-09-12T00:58:51.661Z,90.50
2022-09-12T01:04:22.719Z,90.50
2022-09-12T01:09:51.233Z,90.40
2022-09-12T01:15:19.585Z,90.50
2022-09-12T01:21:31.215Z,90.50
2022-09-12T01:27:20.143Z,90.60
2022-09-12T01:33:05.427Z,90.50
2022-09-12T01:38:59.536Z,90.50
2022-09-12T01:44:57.071Z,90.50
2022-09-12T01:50:32.255Z,90.60
2022-09-12T01:56:14.424Z,90.50
2022-09-12T02:02:13.676Z,90.60
2022-09-12T02:07:58.791Z,90.60
2022-09-12T02:13:36.664Z,90.60
2022-09-12T02:19:36.780Z,90.60
2022-09-12T02:25:06.958Z,90.60
2022-09-12T02:30:50.945Z,90.60
2022-09-12T02:37:23.684Z,90.60
2022-09-12T02:42:52.087Z,90.60
2022-09-12T02:48:34.759Z,90.60
2022-09-12T02:59:31.345Z,90.70
2022-09-12T03:05:31.734Z,90.70
2022-09-12T03:11:23.906Z,90.70
2022-09-12T03:17:52.474Z,90.80
2022-09-12T03:23:39.793Z,90.80
2022-09-12T03:29:08.981Z,90.80
2022-09-12T03:34:39.694Z,90.80
2022-09-12T03:40:10.229Z,91.20
2022-09-12T03:45:38.662Z,91.20
2022-09-12T03:51:10.560Z,91.30
2022-09-12T03:56:40.440Z,91.40
2022-09-12T04:02:09.913Z,91.30
2022-09-12T04:07:37.794Z,91.30
2022-09-12T04:13:05.623Z,91.40
2022-09-12T04:18:34.669Z,91.30
2022-09-12T04:24:02.661Z,91.30
2022-09-12T04:29:31.573Z,91.30
2022-09-12T04:34:59.375Z,91.40
2022-09-12T04:40:29.619Z,91.40
2022-09-12T04:46:11.205Z,91.40
2022-09-12T05:02:44.129Z,91.70
2022-09-12T05:08:11.875Z,91.40
2022-09-12T05:30:18.604Z,91.20
2022-09-12T05:35:52.773Z,91.20
2022-09-12T05:41:25.910Z,90.70
2022-09-12T05:52:21.687Z,90.80
2022-09-12T05:57:49.541Z,90.80
2022-09-12T06:08:48.490Z,90.80
2022-09-12T06:14:19.556Z,90.80
2022-09-12T06:19:47.344Z,90.80
2022-09-12T06:25:15.240Z,90.80
2022-09-12T06:30:43.419Z,90.90
2022-09-12T06:36:21.248Z,90.90
2022-09-12T06:41:51.138Z,90.90
2022-09-12T06:47:18.986Z,90.90
2022-09-12T06:52:50.191Z,91.20
2022-09-12T06:58:17.875Z,91.10
2022-09-12T07:03:52.821Z,91.30
2022-09-12T07:09:20.645Z,91.10
2022-09-12T07:14:48.319Z,91.30
2022-09-12T07:25:44.393Z,91.10
2022-09-12T07:31:16.259Z,91.10
2022-09-12T07:36:44.070Z,91.10
2022-09-12T07:53:09.872Z,91.00
2022-09-12T07:58:40.558Z,90.90
2022-09-12T08:09:36.603Z,90.70
2022-09-12T08:15:05.145Z,90.60
2022-09-12T08:26:06.097Z,90.40
2022-09-12T08:31:36.656Z,90.40
2022-09-12T08:43:21.112Z,90.00
2022-09-12T08:48:49.230Z,89.90
2022-09-12T08:54:26.976Z,90.10
2022-09-12T08:59:55.046Z,90.00
2022-09-12T09:05:30.642Z,88.80
2022-09-12T09:11:26.422Z,88.90
2022-09-12T09:16:55.917Z,89.00
2022-09-12T09:22:36.212Z,88.60
2022-09-12T09:28:44.662Z,87.50
2022-09-12T09:34:26.106Z,86.40
2022-09-12T09:41:01.518Z,86.70
2022-09-12T09:46:29.549Z,85.80
2022-09-12T09:52:00.690Z,85.70
2022-09-12T09:57:34.678Z,84.60
2022-09-12T10:03:14.351Z,85.10
2022-09-12T10:08:42.252Z,83.70
2022-09-12T10:14:38.767Z,84.20
2022-09-12T10:20:32.577Z,83.70
2022-09-12T10:26:05.217Z,83.30
2022-09-12T10:31:54.538Z,81.90
2022-09-12T10:37:32.946Z,80.00
2022-09-12T10:43:02.869Z,80.60
2022-09-12T10:48:34.097Z,78.90
2022-09-12T10:54:05.862Z,79.30
2022-09-12T10:59:45.703Z,79.20
2022-09-12T11:05:40.252Z,79.20
2022-09-12T11:11:32.159Z,78.70
2022-09-12T11:17:23.339Z,77.40
2022-09-12T11:23:24.800Z,77.20
2022-09-12T11:29:46.875Z,77.50
2022-09-12T11:35:29.995Z,76.50
2022-09-12T11:41:06.577Z,76.60
2022-09-12T11:46:38.584Z,75.00
2022-09-12T11:52:23.894Z,75.10
2022-09-12T11:57:58.833Z,73.60
2022-09-12T12:03:47.291Z,73.80
2022-09-12T12:09:18.098Z,73.60
2022-09-12T12:14:49.752Z,73.00
2022-09-12T12:20:18.614Z,72.80
2022-09-12T12:26:02.520Z,71.80
2022-09-12T12:31:30.506Z,72.30
2022-09-12T12:37:03.159Z,71.60
2022-09-12T12:42:35.942Z,70.90
2022-09-12T12:48:15.640Z,70.60
2022-09-12T12:53:43.597Z,69.70
2022-09-12T12:59:23.188Z,63.10
2022-09-12T13:04:51.130Z,59.60
2022-09-12T13:10:29.775Z,60.50
2022-09-12T13:15:58.041Z,61.30
2022-09-12T13:21:25.962Z,63.10
2022-09-12T13:26:54.671Z,64.80
2022-09-12T13:32:22.570Z,63.90
2022-09-12T13:38:26.344Z,64.20
2022-09-12T13:43:54.510Z,63.90
2022-09-12T13:49:38.321Z,61.50
2022-09-12T13:55:21.335Z,60.30
2022-09-12T14:01:10.105Z,57.20
2022-09-12T14:06:50.075Z,51.10
2022-09-12T14:12:44.025Z,51.00
2022-09-12T14:18:29.369Z,46.10
2022-09-12T14:23:57.990Z,46.40
2022-09-12T14:29:26.682Z,43.30
2022-09-12T14:35:12.814Z,43.60
2022-09-12T14:40:50.204Z,42.00
2022-09-12T14:46:39.572Z,43.20
2022-09-12T14:52:30.025Z,43.30
2022-09-12T14:58:18.578Z,43.90
2022-09-12T15:03:49.817Z,43.20
2022-09-12T15:09:21.485Z,44.60
2022-09-12T15:14:49.241Z,48.00
2022-09-12T15:20:17.153Z,50.00
2022-09-12T15:25:45.644Z,49.00
2022-09-12T15:31:27.194Z,50.40
2022-09-12T15:36:55.017Z,50.10
2022-09-12T15:42:29.786Z,51.40
2022-09-12T15:47:58.316Z,52.10
2022-09-12T15:53:26.101Z,52.70
2022-09-12T15:58:59.186Z,53.20
2022-09-12T16:04:30.229Z,53.30
2022-09-12T16:09:58.171Z,52.20
2022-09-12T16:15:26.864Z,53.20
2022-09-12T16:20:56.332Z,53.80
2022-09-12T16:26:24.766Z,54.50
2022-09-12T16:31:52.837Z,55.00
2022-09-12T16:37:22.812Z,55.20
2022-09-12T16:42:50.713Z,55.50
2022-09-12T16:48:18.602Z,56.10
2022-09-12T16:53:46.937Z,56.20
2022-09-12T16:59:19.163Z,56.50
2022-09-12T17:04:47.010Z,56.80
2022-09-12T17:10:14.891Z,57.10
2022-09-12T17:15:42.684Z,57.40
2022-09-12T17:21:11.993Z,57.50
2022-09-12T17:26:41.174Z,58.10
2022-09-12T17:32:08.973Z,58.10
2022-09-12T17:37:37.326Z,58.50
2022-09-12T17:43:05.382Z,58.80
2022-09-12T17:48:33.572Z,59.00
2022-09-12T17:54:06.727Z,59.30
2022-09-12T17:59:34.601Z,59.90
2022-09-12T18:05:05.427Z,60.10
2022-09-12T18:16:10.707Z,60.50
2022-09-12T18:21:39.244Z,60.70
2022-09-12T18:27:07.443Z,61.00
2022-09-12T18:38:04.092Z,61.60
2022-09-12T18:43:33.525Z,61.80
2022-09-12T18:49:03.246Z,62.20
2022-09-12T18:54:33.867Z,62.80
2022-09-12T19:00:10.507Z,63.00
2022-09-12T19:05:41.509Z,63.20
2022-09-12T19:11:12.566Z,63.60
2022-09-12T19:16:42.086Z,64.50
2022-09-12T19:22:11.275Z,64.80
2022-09-12T19:27:40.567Z,65.20
2022-09-12T19:33:09.719Z,65.60
2022-09-12T19:38:39.192Z,65.40
2022-09-12T19:44:08.258Z,65.80
2022-09-12T19:49:40.848Z,66.00
2022-09-12T19:55:10.701Z,66.60
2022-09-12T20:00:39.913Z,66.90
2022-09-12T20:06:12.690Z,66.80
2022-09-12T20:11:40.564Z,66.90
2022-09-12T20:17:08.714Z,67.20
2022-09-12T20:22:40.118Z,67.80
2022-09-12T20:28:10.494Z,68.30
2022-09-12T20:33:38.967Z,68.30
2022-09-12T20:44:53.559Z,69.10
2022-09-12T20:50:22.123Z,68.90
2022-09-12T21:01:22.747Z,69.30
2022-09-12T21:06:50.683Z,70.00
2022-09-12T21:17:46.371Z,70.00
2022-09-12T21:28:42.257Z,70.50
2022-09-12T21:39:38.301Z,70.90
2022-09-12T21:45:06.858Z,71.30
2022-09-12T21:50:35.164Z,71.30
2022-09-12T21:56:08.089Z,71.80
2022-09-12T22:01:36.103Z,71.60
2022-09-12T22:07:05.519Z,71.80
2022-09-12T22:12:33.978Z,72.00
2022-09-12T22:18:01.796Z,72.20
2022-09-12T22:23:48.333Z,72.40
2022-09-12T22:29:16.064Z,72.60
2022-09-12T22:34:43.963Z,72.90
2022-09-12T22:40:12.159Z,72.90
2022-09-12T22:45:43.615Z,73.40
2022-09-12T22:51:11.812Z,73.20
2022-09-12T23:07:36.167Z,74.00
2022-09-12T23:13:05.246Z,73.80
2022-09-12T23:18:36.268Z,74.20
2022-09-12T23:24:04.688Z,74.10
2022-09-12T23:29:34.427Z,74.50
2022-09-12T23:35:03.414Z,74.30
2022-09-12T23:40:31.753Z,74.70
2022-09-12T23:56:56.173Z,75.10
